Terminal Aerodrome Forecast
Issued by NWS

Home | Current Version | Previous Version | Graphics & Text | Print | Product List | Glossary On
Versions: 1 2 3 4 5 6 7 8 9 10 11 12 13
565
FTUS43 KGRB 181134
TAFMTW
TAF
KMTW 181134Z 1812/1912 20010KT P6SM SKC WS020/23040KT
     FM181500 20016G23KT P6SM SKC
     FM182200 21013G20KT P6SM SKC WS020/25045KT
     FM190500 24011KT P6SM SCT250 WS020/25055KT
     FM190900 26008KT P6SM SKC=

USA.gov is the U.S. government's official web portal to all federal, state and local government web resources and services.